createdAt,value
2022-12-18T00:01:43.229Z,52.8
2022-12-18T00:07:22.549Z,52.7
2022-12-18T00:13:26.623Z,52.6
2022-12-18T00:18:54.292Z,52.6
2022-12-18T00:24:31.795Z,52.6
2022-12-18T00:29:55.270Z,52.5
2022-12-18T00:35:19.091Z,52.4
2022-12-18T00:46:07.165Z,52.3
2022-12-18T00:51:46.057Z,52.3
2022-12-18T00:57:10.386Z,52.3
2022-12-18T01:02:50.206Z,52.2
2022-12-18T01:08:14.196Z,52.1
2022-12-18T01:13:37.023Z,52.1
2022-12-18T01:19:16.104Z,52.1
2022-12-18T01:24:38.786Z,52
2022-12-18T01:40:13.523Z,51.9
2022-12-18T01:45:52.327Z,51.8
2022-12-18T01:51:29.115Z,51.8
2022-12-18T01:57:07.128Z,51.8
2022-12-18T02:02:31.000Z,51.7
2022-12-18T02:07:56.558Z,51.6
2022-12-18T02:13:19.723Z,51.6
2022-12-18T02:19:06.899Z,51.5
2022-12-18T02:24:29.202Z,51.5
2022-12-18T02:29:36.589Z,51.4
2022-12-18T02:35:22.753Z,51.4
2022-12-18T02:40:59.819Z,51.4
2022-12-18T02:46:22.695Z,51.3
2022-12-18T02:52:04.282Z,51.3
2022-12-18T02:57:42.097Z,49
2022-12-18T03:03:05.833Z,49.8
2022-12-18T03:08:37.438Z,51.2
2022-12-18T03:13:59.929Z,52.8
2022-12-18T03:19:21.932Z,54.3
2022-12-18T03:24:51.037Z,55.9
2022-12-18T03:30:13.331Z,57.4
2022-12-18T03:35:35.981Z,59
2022-12-18T03:41:16.758Z,60.3
2022-12-18T03:46:23.092Z,60.4
2022-12-18T03:51:52.833Z,60.4
2022-12-18T03:57:32.378Z,60.4
2022-12-18T04:02:39.938Z,60.4
2022-12-18T04:08:02.962Z,60.3
2022-12-18T04:13:55.037Z,60.3
2022-12-18T04:19:37.859Z,60.2
2022-12-18T04:25:16.002Z,60.2
2022-12-18T04:30:55.950Z,60.1
2022-12-18T04:36:19.084Z,60.1
2022-12-18T04:41:25.945Z,60.1
2022-12-18T04:47:12.785Z,60
2022-12-18T04:52:50.437Z,59.9
2022-12-18T04:58:28.571Z,59.9
2022-12-18T05:03:55.286Z,59.9
2022-12-18T05:09:36.012Z,59.8
2022-12-18T05:14:59.294Z,59.8
2022-12-18T05:20:42.736Z,59.7
2022-12-18T05:26:20.838Z,59.6
2022-12-18T05:31:11.913Z,59.6
2022-12-18T05:36:52.296Z,59.6
2022-12-18T05:42:33.809Z,59.5
2022-12-18T05:47:56.618Z,59.4
2022-12-18T05:53:48.327Z,59.4
2022-12-18T05:59:27.674Z,59.4
2022-12-18T06:04:42.243Z,59.3
2022-12-18T06:10:26.245Z,59.3
2022-12-18T06:16:06.489Z,59.3
2022-12-18T06:21:43.615Z,59.1
2022-12-18T06:27:23.241Z,59.1
2022-12-18T06:32:49.473Z,59.1
2022-12-18T06:38:35.745Z,59
2022-12-18T06:44:16.727Z,58.9
2022-12-18T06:49:28.866Z,58.9
2022-12-18T06:55:15.081Z,58.9
2022-12-18T07:01:08.477Z,58.8
2022-12-18T07:06:55.147Z,58.8
2022-12-18T07:12:36.977Z,58.7
2022-12-18T07:18:23.784Z,58.6
2022-12-18T07:24:03.659Z,58.6
2022-12-18T07:35:08.502Z,58.5
2022-12-18T07:40:47.462Z,58.5
2022-12-18T07:46:35.409Z,58.4
2022-12-18T07:52:26.270Z,58.4
2022-12-18T07:59:17.676Z,58.3
2022-12-18T08:04:43.404Z,58.3
2022-12-18T08:10:30.622Z,58.2
2022-12-18T08:16:13.890Z,58.2
2022-12-18T08:21:43.175Z,58.1
2022-12-18T08:28:01.059Z,58.1
2022-12-18T08:33:43.829Z,58
2022-12-18T08:39:27.821Z,58
2022-12-18T08:45:06.743Z,57.9
2022-12-18T08:50:46.227Z,57.9
2022-12-18T08:56:28.861Z,57.9
2022-12-18T09:02:12.561Z,57.8
2022-12-18T09:13:18.043Z,57.7
2022-12-18T09:19:02.956Z,57.6
2022-12-18T09:24:28.449Z,57.6
2022-12-18T09:29:54.951Z,57.6
2022-12-18T09:35:35.131Z,57.5
2022-12-18T09:41:02.784Z,57.5
2022-12-18T09:46:47.351Z,57.4
2022-12-18T09:52:34.366Z,57.4
2022-12-18T09:57:57.825Z,57.4
2022-12-18T10:03:45.610Z,57.3
2022-12-18T10:09:12.151Z,57.3
2022-12-18T10:14:50.549Z,57.2
2022-12-18T10:20:28.257Z,57.1
2022-12-18T10:26:07.574Z,57.1
2022-12-18T10:31:52.567Z,57.1
2022-12-18T10:37:34.700Z,57
2022-12-18T10:43:31.776Z,56.9
2022-12-18T10:49:15.612Z,56.9
2022-12-18T10:55:40.157Z,56.9
2022-12-18T11:01:24.436Z,56.8
2022-12-18T11:07:09.840Z,56.8
2022-12-18T11:12:39.639Z,56.7
2022-12-18T11:18:17.480Z,56.7
2022-12-18T11:23:50.923Z,56.6
2022-12-18T11:29:56.019Z,56.6
2022-12-18T11:35:51.756Z,56.5
2022-12-18T11:41:20.395Z,56.5
2022-12-18T11:46:53.024Z,56.4
2022-12-18T11:52:17.798Z,56.4
2022-12-18T11:58:04.381Z,56.4
2022-12-18T12:03:52.615Z,56.3
2022-12-18T12:09:38.879Z,56.3
2022-12-18T12:15:24.452Z,56.2
2022-12-18T12:21:07.522Z,56.2
2022-12-18T12:26:54.428Z,56.1
2022-12-18T12:32:36.468Z,56.1
2022-12-18T12:37:50.625Z,56
2022-12-18T12:43:22.671Z,56
2022-12-18T12:49:04.369Z,55.9
2022-12-18T12:54:36.083Z,55.9
2022-12-18T12:59:52.849Z,55.9
2022-12-18T13:05:26.770Z,55.8
2022-12-18T13:11:00.290Z,55.8
2022-12-18T13:16:36.064Z,55.8
2022-12-18T13:22:10.233Z,55.7
2022-12-18T13:27:35.976Z,55.6
2022-12-18T13:33:22.077Z,55.6
2022-12-18T13:39:43.143Z,55.6
2022-12-18T13:45:30.174Z,55.5
2022-12-18T13:51:12.676Z,55.4
2022-12-18T13:56:47.013Z,55.4
2022-12-18T14:02:36.302Z,55.4
2022-12-18T14:08:26.265Z,55.3
2022-12-18T14:14:55.141Z,55.3
2022-12-18T14:20:52.799Z,55.3
2022-12-18T14:26:39.383Z,55.2
2022-12-18T14:32:15.145Z,55.1
2022-12-18T14:37:56.212Z,55.1
2022-12-18T14:43:44.147Z,55.1
2022-12-18T14:49:47.037Z,55
2022-12-18T14:55:16.983Z,54.9
2022-12-18T15:01:02.708Z,54.9
2022-12-18T15:06:53.481Z,54.9
2022-12-18T15:12:19.943Z,54.8
2022-12-18T15:18:06.239Z,54.8
2022-12-18T15:23:31.822Z,54.7
2022-12-18T15:29:15.676Z,54.7
2022-12-18T15:34:41.343Z,54.7
2022-12-18T15:39:40.044Z,54.6
2022-12-18T15:45:25.347Z,54.6
2022-12-18T15:50:51.268Z,54.5
2022-12-18T15:56:34.755Z,54.4
2022-12-18T16:02:17.260Z,54.4
2022-12-18T16:08:37.761Z,54.4
2022-12-18T16:14:20.641Z,54.3
2022-12-18T16:19:46.084Z,54.3
2022-12-18T16:25:33.344Z,54.3
2022-12-18T16:31:11.460Z,54.2
2022-12-18T16:36:57.925Z,54.2
2022-12-18T16:42:29.840Z,54.1
2022-12-18T16:47:59.126Z,54.1
2022-12-18T16:53:25.196Z,54.1
2022-12-18T16:58:54.038Z,54
2022-12-18T17:04:29.382Z,53.9
2022-12-18T17:09:55.576Z,53.9
2022-12-18T17:15:25.967Z,53.9
2022-12-18T17:21:04.823Z,53.8
2022-12-18T17:26:16.722Z,53.8
2022-12-18T17:31:14.100Z,53.8
2022-12-18T17:36:44.370Z,53.7
2022-12-18T17:41:56.814Z,53.6
2022-12-18T17:47:08.832Z,53.6
2022-12-18T17:52:18.173Z,53.6
2022-12-18T17:57:49.485Z,53.6
2022-12-18T18:03:05.570Z,53.5
2022-12-18T18:08:33.450Z,53.5
2022-12-18T18:13:57.258Z,53.4
2022-12-18T18:19:11.601Z,53.4
2022-12-18T18:24:13.263Z,53.4
2022-12-18T18:29:08.221Z,53.3
2022-12-18T18:33:49.598Z,53.3
2022-12-18T18:39:24.135Z,53.3
2022-12-18T18:44:51.518Z,53.2
2022-12-18T18:50:04.230Z,53.2
2022-12-18T18:55:30.371Z,53.1
2022-12-18T19:01:45.760Z,53.1
2022-12-18T19:06:55.032Z,53.1
2022-12-18T19:12:10.913Z,53
2022-12-18T19:17:48.169Z,52.9
2022-12-18T19:23:28.344Z,52.9
2022-12-18T19:29:53.751Z,52.9
2022-12-18T19:35:46.913Z,52.8
2022-12-18T19:41:07.523Z,52.8
2022-12-18T19:46:29.853Z,52.8
2022-12-18T19:52:11.526Z,52.7
2022-12-18T19:58:01.011Z,52.6
2022-12-18T20:04:01.148Z,52.6
2022-12-18T20:09:59.682Z,52.6
2022-12-18T20:15:47.395Z,52.5
2022-12-18T20:21:33.462Z,52.4
2022-12-18T20:26:58.652Z,52.4
2022-12-18T20:38:24.540Z,52.3
2022-12-18T20:44:22.064Z,52.3
2022-12-18T20:50:07.407Z,52.2
2022-12-18T20:55:51.993Z,52.2
2022-12-18T21:01:30.705Z,52.1
2022-12-18T21:07:19.236Z,52.1
2022-12-18T21:12:58.194Z,52.1
2022-12-18T21:18:50.522Z,52
2022-12-18T21:24:27.062Z,52
2022-12-18T21:35:56.705Z,51.9
2022-12-18T21:41:42.627Z,51.8
2022-12-18T21:47:21.589Z,51.8
2022-12-18T21:53:05.695Z,51.8
2022-12-18T21:58:55.354Z,51.7
2022-12-18T22:05:19.937Z,51.7
2022-12-18T22:11:03.722Z,51.6
2022-12-18T22:16:45.234Z,51.6
2022-12-18T22:22:41.012Z,51.6
2022-12-18T22:28:08.627Z,51.5
2022-12-18T22:33:54.433Z,51.4
2022-12-18T22:39:45.007Z,51.4
2022-12-18T22:45:18.599Z,51.4
2022-12-18T22:51:16.214Z,51.3
2022-12-18T22:56:58.814Z,51.3
2022-12-18T23:02:49.402Z,51.3
2022-12-18T23:08:18.858Z,51.2
2022-12-18T23:13:56.598Z,51.2
2022-12-18T23:19:29.308Z,51.1
2022-12-18T23:25:22.367Z,51.1
2022-12-18T23:30:49.557Z,51.1
2022-12-18T23:36:35.915Z,51
2022-12-18T23:43:17.709Z,50.9
2022-12-18T23:48:47.643Z,50.9
2022-12-18T23:54:32.822Z,50.9
